createdAt,value
2022-08-09T00:00:48.109Z,1006.28
2022-08-09T00:01:55.310Z,1006.31
2022-08-09T00:02:50.067Z,1006.23
2022-08-09T00:04:05.838Z,1006.29
2022-08-09T00:05:03.683Z,1006.27
2022-08-09T00:06:19.833Z,1006.28
2022-08-09T00:06:48.022Z,1006.27
2022-08-09T00:07:47.073Z,1006.28
2022-08-09T00:08:46.992Z,1006.28
2022-08-09T00:09:47.246Z,1006.22
2022-08-09T00:10:47.054Z,1006.22
2022-08-09T00:11:58.592Z,1006.18
2022-08-09T00:12:51.690Z,1006.26
2022-08-09T00:13:47.063Z,1006.27
2022-08-09T00:14:47.459Z,1006.21
2022-08-09T00:15:59.734Z,1006.23
2022-08-09T00:16:47.949Z,1006.23
2022-08-09T00:18:09.502Z,1006.15
2022-08-09T00:18:48.071Z,1006.20
2022-08-09T00:19:47.995Z,1006.19
2022-08-09T00:20:50.208Z,1006.16
2022-08-09T00:21:55.714Z,1006.18
2022-08-09T00:22:48.014Z,1006.21
2022-08-09T00:23:56.288Z,1006.22
2022-08-09T00:24:47.834Z,1006.22
2022-08-09T00:25:46.979Z,1006.17
2022-08-09T00:26:47.805Z,1006.21
2022-08-09T00:27:47.961Z,1006.23
2022-08-09T00:28:52.737Z,1006.23
2022-08-09T00:30:23.673Z,1006.16
2022-08-09T00:30:47.758Z,1006.18
2022-08-09T00:31:59.243Z,1006.16
2022-08-09T00:32:47.766Z,1006.14
2022-08-09T00:33:50.425Z,1006.16
2022-08-09T00:34:52.060Z,1006.12
2022-08-09T00:35:47.868Z,1006.11
2022-08-09T00:36:46.694Z,1006.13
2022-08-09T00:37:46.984Z,1006.12
2022-08-09T00:38:50.774Z,1006.12
2022-08-09T00:40:13.729Z,1006.10
2022-08-09T00:40:52.570Z,1006.09
2022-08-09T00:44:11.190Z,1006.18
2022-08-09T00:44:13.073Z,1006.10
2022-08-09T00:44:13.486Z,1006.11
2022-08-09T00:44:47.609Z,1006.13
2022-08-09T00:45:50.519Z,1006.12
2022-08-09T00:46:57.053Z,1006.15
2022-08-09T00:47:47.656Z,1006.16
2022-08-09T00:48:49.388Z,1006.17
2022-08-09T00:49:54.482Z,1006.09
2022-08-09T00:50:47.614Z,1006.08
2022-08-09T00:51:46.566Z,1006.18
2022-08-09T00:52:47.545Z,1006.13
2022-08-09T00:53:46.516Z,1006.17
2022-08-09T00:54:46.496Z,1006.10
2022-08-09T00:56:04.084Z,1006.10
2022-08-09T00:56:47.468Z,1006.18
2022-08-09T00:57:49.659Z,1006.16
2022-08-09T00:58:48.900Z,1006.15
2022-08-09T00:59:52.544Z,1006.16
2022-08-09T01:00:47.501Z,1006.17
2022-08-09T01:01:46.487Z,1006.21
2022-08-09T01:02:46.417Z,1006.21
2022-08-09T01:03:46.738Z,1006.15
2022-08-09T01:04:46.388Z,1006.20
2022-08-09T01:05:51.866Z,1006.18
2022-08-09T01:06:54.312Z,1006.16
2022-08-09T01:08:00.420Z,1006.17
2022-08-09T01:08:49.483Z,1006.15
2022-08-09T01:09:46.897Z,1006.11
2022-08-09T01:10:46.319Z,1006.11
2022-08-09T01:11:55.484Z,1006.16
2022-08-09T01:12:47.300Z,1006.14
2022-08-09T01:13:58.529Z,1006.17
2022-08-09T01:14:48.063Z,1006.16
2022-08-09T01:15:52.288Z,1006.17
2022-08-09T01:16:49.421Z,1006.16
2022-08-09T01:17:46.240Z,1006.16
2022-08-09T01:18:47.420Z,1006.17
2022-08-09T01:20:01.493Z,1006.21
2022-08-09T01:20:47.291Z,1006.18
2022-08-09T01:21:51.077Z,1006.23
2022-08-09T01:22:48.231Z,1006.16
2022-08-09T01:24:02.295Z,1006.15
2022-08-09T01:24:50.314Z,1006.17
2022-08-09T01:25:48.958Z,1006.18
2022-08-09T01:26:46.410Z,1006.11
2022-08-09T01:27:47.131Z,1006.17
2022-08-09T01:28:46.121Z,1006.12
2022-08-09T01:29:55.303Z,1006.17
2022-08-09T01:30:52.246Z,1006.12
2022-08-09T01:32:31.947Z,1006.12
2022-08-09T01:32:47.145Z,1006.14
2022-08-09T01:33:46.060Z,1006.14
2022-08-09T01:34:46.049Z,1006.16
2022-08-09T01:35:46.032Z,1006.09
2022-08-09T01:36:47.042Z,1006.12
2022-08-09T01:38:08.050Z,1006.12
2022-08-09T01:38:46.998Z,1006.14
2022-08-09T01:39:46.057Z,1006.14
2022-08-09T01:40:52.760Z,1006.15
2022-08-09T01:41:55.700Z,1006.15
2022-08-09T01:42:46.982Z,1006.12
2022-08-09T01:43:52.046Z,1006.13
2022-08-09T01:44:46.935Z,1006.09
2022-08-09T01:45:47.710Z,1006.22
2022-08-09T01:46:47.064Z,1006.18
2022-08-09T01:47:45.901Z,1006.17
2022-08-09T01:48:45.911Z,1006.13
2022-08-09T01:49:48.739Z,1006.18
2022-08-09T01:50:48.400Z,1006.17
2022-08-09T01:51:53.595Z,1006.22
2022-08-09T01:52:46.855Z,1006.23
2022-08-09T01:53:45.854Z,1006.18
2022-08-09T01:54:45.821Z,1006.18
2022-08-09T01:55:45.804Z,1006.19
2022-08-09T01:56:47.085Z,1006.14
2022-08-09T01:57:50.715Z,1006.16
2022-08-09T01:58:48.934Z,1006.14
2022-08-09T01:59:51.778Z,1006.17
2022-08-09T02:00:50.669Z,1006.17
2022-08-09T02:01:59.278Z,1006.19
2022-08-09T02:02:46.732Z,1006.21
2022-08-09T02:03:45.731Z,1006.18
2022-08-09T02:04:45.886Z,1006.18
2022-08-09T02:06:03.390Z,1006.19
2022-08-09T02:06:58.504Z,1006.19
2022-08-09T02:08:40.185Z,1006.19
2022-08-09T02:08:58.089Z,1006.23
2022-08-09T02:09:46.675Z,1006.21
2022-08-09T02:10:50.879Z,1006.25
2022-08-09T02:11:46.624Z,1006.26
2022-08-09T02:12:45.623Z,1006.27
2022-08-09T02:14:06.464Z,1006.25
2022-08-09T02:14:46.594Z,1006.30
2022-08-09T02:15:50.298Z,1006.27
2022-08-09T02:16:53.157Z,1006.30
2022-08-09T02:18:09.845Z,1006.26
2022-08-09T02:18:47.827Z,1006.35
2022-08-09T02:19:45.760Z,1006.29
2022-08-09T02:20:45.545Z,1006.30
2022-08-09T02:21:45.517Z,1006.29
2022-08-09T02:22:46.399Z,1006.29
2022-08-09T02:23:45.488Z,1006.36
2022-08-09T02:24:51.628Z,1006.30
2022-08-09T02:25:49.631Z,1006.37
2022-08-09T02:26:46.459Z,1006.31
2022-08-09T02:28:00.424Z,1006.32
2022-08-09T02:28:46.436Z,1006.31
2022-08-09T02:29:45.433Z,1006.29
2022-08-09T02:30:46.436Z,1006.36
2022-08-09T02:31:45.417Z,1006.32
2022-08-09T02:32:45.396Z,1006.29
2022-08-09T02:34:07.191Z,1006.27
2022-08-09T02:34:51.616Z,1006.27
2022-08-09T02:36:03.369Z,1006.27
2022-08-09T02:36:46.368Z,1006.22
2022-08-09T02:37:45.543Z,1006.20
2022-08-09T02:38:47.903Z,1006.23
2022-08-09T02:39:49.656Z,1006.25
2022-08-09T02:40:46.365Z,1006.20
2022-08-09T02:41:45.308Z,1006.26
2022-08-09T02:42:45.277Z,1006.19
2022-08-09T02:43:53.678Z,1006.21
2022-08-09T02:44:46.267Z,1006.26
2022-08-09T02:45:45.240Z,1006.26
2022-08-09T02:46:45.236Z,1006.25
2022-08-09T02:47:57.326Z,1006.19
2022-08-09T02:48:46.334Z,1006.22
2022-08-09T02:49:45.201Z,1006.21
2022-08-09T02:50:45.198Z,1006.23
2022-08-09T02:51:45.167Z,1006.24
2022-08-09T02:52:45.170Z,1006.24
2022-08-09T02:53:59.630Z,1006.20
2022-08-09T02:54:54.071Z,1006.23
2022-08-09T02:55:58.557Z,1006.22
2022-08-09T02:56:51.376Z,1006.21
2022-08-09T02:58:00.082Z,1006.24
2022-08-09T02:58:46.119Z,1006.22
2022-08-09T03:00:11.388Z,1006.18
2022-08-09T03:00:54.912Z,1006.23
2022-08-09T03:02:05.338Z,1006.23
2022-08-09T03:02:58.656Z,1006.22
2022-08-09T03:04:17.714Z,1006.11
2022-08-09T03:04:46.051Z,1006.18
2022-08-09T03:05:45.010Z,1006.15
2022-08-09T03:06:45.472Z,1006.19
2022-08-09T03:07:55.210Z,1006.21
2022-08-09T03:08:45.987Z,1006.17
2022-08-09T03:09:54.319Z,1006.19
2022-08-09T03:10:45.963Z,1006.21
2022-08-09T03:12:10.428Z,1006.20
2022-08-09T03:12:49.461Z,1006.20
2022-08-09T03:13:59.705Z,1006.19
2022-08-09T03:14:45.950Z,1006.17
2022-08-09T03:16:06.393Z,1006.21
2022-08-09T03:16:48.154Z,1006.19
2022-08-09T03:17:44.878Z,1006.14
2022-08-09T03:18:44.870Z,1006.21
2022-08-09T03:19:58.276Z,1006.18
2022-08-09T03:20:45.870Z,1006.18
2022-08-09T03:21:50.774Z,1006.24
2022-08-09T03:22:45.873Z,1006.26
2022-08-09T03:24:04.062Z,1006.22
2022-08-09T03:24:52.111Z,1006.22
2022-08-09T03:25:56.937Z,1006.23
2022-08-09T03:26:47.171Z,1006.29
2022-08-09T03:27:45.804Z,1006.29
2022-08-09T03:28:44.766Z,1006.28
2022-08-09T03:29:58.104Z,1006.28
2022-08-09T03:30:45.731Z,1006.27
2022-08-09T03:32:00.550Z,1006.33
2022-08-09T03:32:45.786Z,1006.31
2022-08-09T03:33:53.123Z,1006.30
2022-08-09T03:34:45.692Z,1006.39
2022-08-09T03:36:12.904Z,1006.31
2022-08-09T03:36:48.048Z,1006.38
2022-08-09T03:37:55.605Z,1006.34
2022-08-09T03:38:45.669Z,1006.38
2022-08-09T03:39:48.693Z,1006.38
2022-08-09T03:40:45.621Z,1006.36
2022-08-09T03:41:48.410Z,1006.36
2022-08-09T03:42:44.621Z,1006.39
2022-08-09T03:44:03.402Z,1006.39
2022-08-09T03:44:45.592Z,1006.41
2022-08-09T03:46:05.222Z,1006.37
2022-08-09T03:46:46.462Z,1006.38
2022-08-09T03:47:46.816Z,1006.40
2022-08-09T03:48:51.703Z,1006.37
2022-08-09T03:49:58.036Z,1006.35
2022-08-09T03:50:45.503Z,1006.35
2022-08-09T03:51:59.110Z,1006.34
2022-08-09T03:52:46.030Z,1006.39
2022-08-09T03:53:44.467Z,1006.32
2022-08-09T03:54:44.461Z,1006.35
2022-08-09T03:55:44.496Z,1006.35
2022-08-09T03:56:44.442Z,1006.39
2022-08-09T03:57:44.657Z,1006.39
2022-08-09T03:58:45.424Z,1006.34
2022-08-09T03:59:54.211Z,1006.39
2022-08-09T04:00:45.485Z,1006.41
2022-08-09T04:01:44.375Z,1006.39
2022-08-09T04:02:52.656Z,1006.41
2022-08-09T04:03:46.467Z,1006.44
2022-08-09T04:04:45.634Z,1006.40
2022-08-09T04:05:45.966Z,1006.39
2022-08-09T04:06:48.863Z,1006.46
2022-08-09T04:07:53.615Z,1006.39
2022-08-09T04:08:46.728Z,1006.48
2022-08-09T04:09:50.285Z,1006.47
2022-08-09T04:10:49.675Z,1006.37
2022-08-09T04:11:44.286Z,1006.37
2022-08-09T04:12:44.975Z,1006.40
2022-08-09T04:14:37.563Z,1006.43
2022-08-09T04:15:00.539Z,1006.44
2022-08-09T04:16:18.580Z,1006.44
2022-08-09T04:16:45.229Z,1006.51
2022-08-09T04:17:44.197Z,1006.50
2022-08-09T04:18:44.178Z,1006.49
2022-08-09T04:19:51.456Z,1006.47
2022-08-09T04:20:45.167Z,1006.50
2022-08-09T04:21:44.148Z,1006.47
2022-08-09T04:22:44.506Z,1006.51
2022-08-09T04:23:54.157Z,1006.45
2022-08-09T04:24:45.119Z,1006.55
2022-08-09T04:25:44.109Z,1006.48
2022-08-09T04:26:44.099Z,1006.54
2022-08-09T04:27:48.972Z,1006.49
2022-08-09T04:28:46.916Z,1006.55
2022-08-09T04:29:49.690Z,1006.52
2022-08-09T04:30:45.086Z,1006.57
2022-08-09T04:31:46.747Z,1006.60
2022-08-09T04:32:45.840Z,1006.59
2022-08-09T04:33:51.638Z,1006.58
2022-08-09T04:34:54.185Z,1006.62
2022-08-09T04:35:44.989Z,1006.56
2022-08-09T04:36:50.342Z,1006.59
2022-08-09T04:37:46.458Z,1006.63
2022-08-09T04:38:43.960Z,1006.60
2022-08-09T04:39:44.030Z,1006.63
2022-08-09T04:40:44.939Z,1006.66
2022-08-09T04:41:44.104Z,1006.66
2022-08-09T04:42:43.910Z,1006.64
2022-08-09T04:43:49.883Z,1006.65
2022-08-09T04:44:49.279Z,1006.68
2022-08-09T04:45:53.501Z,1006.70
2022-08-09T04:46:59.120Z,1006.73
2022-08-09T04:47:59.239Z,1006.71
2022-08-09T04:48:50.314Z,1006.67
2022-08-09T04:49:54.816Z,1006.76
2022-08-09T04:50:44.841Z,1006.75
2022-08-09T04:51:43.809Z,1006.74
2022-08-09T04:52:43.801Z,1006.75
2022-08-09T04:53:43.781Z,1006.81
2022-08-09T04:54:43.771Z,1006.81
2022-08-09T04:55:59.069Z,1006.84
2022-08-09T04:56:44.771Z,1006.78
2022-08-09T04:57:58.785Z,1006.80
2022-08-09T04:58:44.735Z,1006.85
2022-08-09T04:59:43.711Z,1006.87
2022-08-09T05:00:43.714Z,1006.83
2022-08-09T05:01:43.713Z,1006.93
2022-08-09T05:02:43.682Z,1006.87
2022-08-09T05:03:44.727Z,1006.91
2022-08-09T05:04:43.661Z,1006.95
2022-08-09T05:05:51.821Z,1006.94
2022-08-09T05:06:44.665Z,1006.97
2022-08-09T05:07:46.537Z,1007.01
2022-08-09T05:08:43.815Z,1007.01
2022-08-09T05:09:49.927Z,1006.97
2022-08-09T05:10:44.640Z,1007.02
2022-08-09T05:11:43.605Z,1006.98
2022-08-09T05:12:43.583Z,1007.02
2022-08-09T05:13:43.603Z,1007.04
2022-08-09T05:14:43.552Z,1007.02
2022-08-09T05:15:48.046Z,1007.00
2022-08-09T05:16:59.020Z,1007.02
2022-08-09T05:18:42.430Z,1007.01
2022-08-09T05:18:57.946Z,1007.01
2022-08-09T05:19:46.188Z,1007.01
2022-08-09T05:20:43.482Z,1007.00
2022-08-09T05:21:47.414Z,1007.02
2022-08-09T05:23:51.121Z,1007.06
2022-08-09T05:23:55.003Z,1007.09
2022-08-09T05:24:44.465Z,1007.07
2022-08-09T05:25:43.434Z,1007.05
2022-08-09T05:26:46.108Z,1007.07
2022-08-09T05:27:46.467Z,1007.09
2022-08-09T05:28:43.393Z,1007.02
2022-08-09T05:29:43.374Z,1007.04
2022-08-09T05:30:47.925Z,1007.11
2022-08-09T05:31:46.838Z,1007.16
2022-08-09T05:32:44.346Z,1007.13
2022-08-09T05:33:43.340Z,1007.20
2022-08-09T05:34:45.669Z,1007.17
2022-08-09T05:35:46.779Z,1007.16
2022-08-09T05:36:47.060Z,1007.17
2022-08-09T05:37:47.997Z,1007.19
2022-08-09T05:38:46.016Z,1007.13
2022-08-09T05:39:44.507Z,1007.15
2022-08-09T05:40:46.501Z,1007.23
2022-08-09T05:41:44.244Z,1007.22
2022-08-09T05:42:43.688Z,1007.22
2022-08-09T05:43:45.250Z,1007.21
2022-08-09T05:44:44.212Z,1007.16
2022-08-09T05:45:52.506Z,1007.14
2022-08-09T05:46:44.183Z,1007.20
2022-08-09T05:47:51.635Z,1007.23
2022-08-09T05:48:44.208Z,1007.23
2022-08-09T05:50:25.211Z,1007.26
2022-08-09T05:50:51.085Z,1007.24
2022-08-09T05:51:46.470Z,1007.24
2022-08-09T05:52:43.118Z,1007.23
2022-08-09T05:53:56.785Z,1007.26
2022-08-09T05:54:44.110Z,1007.29
2022-08-09T05:55:43.086Z,1007.30
2022-08-09T05:56:54.426Z,1007.29
2022-08-09T05:57:50.777Z,1007.34
2022-08-09T05:58:44.046Z,1007.33
2022-08-09T05:59:43.059Z,1007.30
2022-08-09T06:00:43.027Z,1007.21
2022-08-09T06:01:43.017Z,1007.33
2022-08-09T06:02:46.424Z,1007.33
2022-08-09T06:03:44.071Z,1007.39
2022-08-09T06:04:44.705Z,1007.33
2022-08-09T06:05:57.299Z,1007.33
2022-08-09T06:06:49.747Z,1007.37
2022-08-09T06:07:43.958Z,1007.37
2022-08-09T06:08:43.940Z,1007.35
2022-08-09T06:10:02.284Z,1007.34
2022-08-09T06:10:43.969Z,1007.42
2022-08-09T06:11:57.152Z,1007.48
2022-08-09T06:12:43.898Z,1007.42
2022-08-09T06:13:42.879Z,1007.51
2022-08-09T06:14:42.871Z,1007.47
2022-08-09T06:15:42.869Z,1007.51
2022-08-09T06:16:42.871Z,1007.45
2022-08-09T06:17:43.839Z,1007.46
2022-08-09T06:18:42.829Z,1007.49
2022-08-09T06:19:42.818Z,1007.45
2022-08-09T06:20:42.804Z,1007.52
2022-08-09T06:21:51.410Z,1007.55
2022-08-09T06:22:45.647Z,1007.61
2022-08-09T06:23:54.976Z,1007.51
2022-08-09T06:24:43.761Z,1007.51
2022-08-09T06:25:43.248Z,1007.59
2022-08-09T06:26:43.661Z,1007.51
2022-08-09T06:27:51.680Z,1007.63
2022-08-09T06:28:43.716Z,1007.62
2022-08-09T06:29:48.178Z,1007.61
2022-08-09T06:30:43.691Z,1007.63
2022-08-09T06:32:08.335Z,1007.67
2022-08-09T06:32:59.388Z,1007.66
2022-08-09T06:33:53.117Z,1007.64
2022-08-09T06:34:43.655Z,1007.68
2022-08-09T06:35:57.584Z,1007.71
2022-08-09T06:36:44.051Z,1007.75
2022-08-09T06:37:53.052Z,1007.68
2022-08-09T06:38:49.944Z,1007.61
2022-08-09T06:39:58.358Z,1007.62
2022-08-09T06:40:43.639Z,1007.68
2022-08-09T06:42:07.969Z,1007.66
2022-08-09T06:42:44.783Z,1007.65
2022-08-09T06:43:42.566Z,1007.59
2022-08-09T06:44:42.545Z,1007.61
2022-08-09T06:46:06.626Z,1007.67
2022-08-09T06:46:43.516Z,1007.66
2022-08-09T06:47:42.507Z,1007.70
2022-08-09T06:48:42.698Z,1007.65
2022-08-09T06:50:12.032Z,1007.77
2022-08-09T06:50:43.468Z,1007.80
2022-08-09T06:51:42.470Z,1007.80
2022-08-09T06:52:42.452Z,1007.75
2022-08-09T06:53:42.449Z,1007.84
2022-08-09T06:54:42.457Z,1007.80
2022-08-09T06:55:42.439Z,1007.81
2022-08-09T06:56:45.566Z,1007.81
2022-08-09T06:58:01.210Z,1007.84
2022-08-09T07:00:51.426Z,1007.84
2022-08-09T07:00:52.217Z,1007.84
2022-08-09T07:00:52.509Z,1007.92
2022-08-09T07:01:58.101Z,1007.88
2022-08-09T07:02:43.459Z,1007.91
2022-08-09T07:03:53.088Z,1007.92
2022-08-09T07:04:43.321Z,1007.87
2022-08-09T07:05:58.345Z,1007.91
2022-08-09T07:06:43.307Z,1007.90
2022-08-09T07:07:59.970Z,1007.79
2022-08-09T07:08:43.281Z,1007.89
2022-08-09T07:09:55.954Z,1007.90
2022-08-09T07:10:43.277Z,1007.84
2022-08-09T07:11:52.091Z,1007.90
2022-08-09T07:12:43.420Z,1007.92
2022-08-09T07:14:04.458Z,1007.93
2022-08-09T07:14:43.213Z,1007.91
2022-08-09T07:16:38.544Z,1007.95
2022-08-09T07:16:49.039Z,1007.97
2022-08-09T07:17:52.598Z,1008.01
2022-08-09T07:18:43.177Z,1008.00
2022-08-09T07:19:42.167Z,1007.99
2022-08-09T07:20:43.817Z,1007.94
2022-08-09T07:21:42.177Z,1007.96
2022-08-09T07:22:49.577Z,1007.98
2022-08-09T07:23:46.731Z,1007.92
2022-08-09T07:24:44.370Z,1007.90
2022-08-09T07:25:43.512Z,1007.95
2022-08-09T07:26:42.088Z,1007.99
2022-08-09T07:27:42.891Z,1007.91
2022-08-09T07:29:08.802Z,1007.91
2022-08-09T07:29:43.152Z,1007.94
2022-08-09T07:30:42.039Z,1007.99
2022-08-09T07:31:45.544Z,1008.00
2022-08-09T07:32:43.066Z,1008.01
2022-08-09T07:33:52.662Z,1008.01
2022-08-09T07:34:43.009Z,1008.03
2022-08-09T07:35:53.868Z,1008.15
2022-08-09T07:36:42.981Z,1008.09
2022-08-09T07:37:44.564Z,1008.11
2022-08-09T07:38:41.982Z,1008.08
2022-08-09T07:39:42.552Z,1008.02
2022-08-09T07:41:08.283Z,1008.11
2022-08-09T07:41:42.932Z,1008.07
2022-08-09T07:42:41.923Z,1008.05
2022-08-09T07:43:49.820Z,1008.10
2022-08-09T07:44:52.453Z,1008.08
2022-08-09T07:45:42.902Z,1008.11
2022-08-09T07:46:41.883Z,1007.99
2022-08-09T07:47:49.535Z,1008.08
2022-08-09T07:48:42.874Z,1008.14
2022-08-09T07:50:04.624Z,1008.11
2022-08-09T07:50:42.845Z,1008.10
2022-08-09T07:52:05.714Z,1008.10
2022-08-09T07:52:42.979Z,1008.07
2022-08-09T07:54:07.168Z,1008.05
2022-08-09T07:54:42.845Z,1008.09
2022-08-09T07:56:03.456Z,1008.01
2022-08-09T07:56:48.682Z,1008.08
2022-08-09T07:57:46.567Z,1008.04
2022-08-09T07:58:41.755Z,1008.09
2022-08-09T07:59:51.854Z,1008.09
2022-08-09T08:00:59.091Z,1008.12
2022-08-09T08:01:42.792Z,1008.05
2022-08-09T08:02:42.995Z,1008.02
2022-08-09T08:03:42.707Z,1008.04
2022-08-09T08:04:41.698Z,1007.97
2022-08-09T08:05:58.022Z,1008.04
2022-08-09T08:06:55.871Z,1008.02
2022-08-09T08:08:43.500Z,1008.08
2022-08-09T08:09:03.814Z,1008.07
2022-08-09T08:09:45.283Z,1008.10
2022-08-09T08:10:48.757Z,1008.06
2022-08-09T08:12:10.475Z,1008.09
2022-08-09T08:12:45.051Z,1008.14
2022-08-09T08:13:56.204Z,1008.12
2022-08-09T08:14:42.593Z,1008.13
2022-08-09T08:15:41.593Z,1008.11
2022-08-09T08:17:01.053Z,1008.07
2022-08-09T08:17:52.924Z,1008.06
2022-08-09T08:18:43.234Z,1008.11
2022-08-09T08:19:41.545Z,1008.13
2022-08-09T08:20:42.899Z,1008.06
2022-08-09T08:21:41.525Z,1008.05
2022-08-09T08:22:42.508Z,1008.07
2022-08-09T08:23:41.542Z,1008.13
2022-08-09T08:24:47.246Z,1008.12
2022-08-09T08:25:44.395Z,1008.13
2022-08-09T08:26:55.135Z,1008.16
2022-08-09T08:27:43.065Z,1008.16
2022-08-09T08:28:41.455Z,1008.12
2022-08-09T08:29:48.535Z,1008.14
2022-08-09T08:30:42.427Z,1008.16
2022-08-09T08:32:03.985Z,1008.15
2022-08-09T08:32:53.678Z,1008.16
2022-08-09T08:33:52.794Z,1008.14
2022-08-09T08:34:42.437Z,1008.16
2022-08-09T08:35:59.734Z,1008.18
2022-08-09T08:36:42.370Z,1008.11
2022-08-09T08:38:01.919Z,1008.09
2022-08-09T08:38:42.359Z,1008.19
2022-08-09T08:39:43.676Z,1008.15
2022-08-09T08:40:41.355Z,1008.10
2022-08-09T08:41:50.275Z,1008.14
2022-08-09T08:42:43.613Z,1008.15
2022-08-09T08:43:42.301Z,1008.06
2022-08-09T08:44:41.292Z,1008.03
2022-08-09T08:45:43.196Z,1008.06
2022-08-09T08:47:02.314Z,1008.02
2022-08-09T08:47:42.893Z,1008.05
2022-08-09T08:48:51.402Z,1007.99
2022-08-09T08:49:46.760Z,1008.04
2022-08-09T08:50:42.238Z,1008.05
2022-08-09T08:52:00.257Z,1008.05
2022-08-09T08:52:57.683Z,1008.09
2022-08-09T08:53:42.217Z,1008.05
2022-08-09T08:54:42.194Z,1008.05
2022-08-09T08:55:41.766Z,1008.03
2022-08-09T08:56:41.301Z,1008.03
2022-08-09T08:57:41.165Z,1008.00
2022-08-09T08:58:44.492Z,1008.00
2022-08-09T08:59:46.609Z,1008.04
2022-08-09T09:00:42.126Z,1008.01
2022-08-09T09:01:52.664Z,1008.10
2022-08-09T09:02:42.195Z,1008.09
2022-08-09T09:03:41.191Z,1008.03
2022-08-09T09:04:47.846Z,1008.10
2022-08-09T09:06:00.008Z,1008.14
2022-08-09T09:06:42.077Z,1008.08
2022-08-09T09:07:42.725Z,1008.11
2022-08-09T09:08:42.374Z,1008.07
2022-08-09T09:10:01.769Z,1008.06
2022-08-09T09:10:42.037Z,1008.10
2022-08-09T09:11:41.029Z,1008.14
2022-08-09T09:12:41.020Z,1008.16
2022-08-09T09:13:54.863Z,1008.11
2022-08-09T09:14:42.020Z,1008.14
2022-08-09T09:15:41.022Z,1008.08
2022-08-09T09:16:40.981Z,1008.08
2022-08-09T09:17:48.660Z,1008.05
2022-08-09T09:18:48.176Z,1008.05
2022-08-09T09:19:42.132Z,1008.09
2022-08-09T09:20:40.970Z,1008.12
2022-08-09T09:21:43.245Z,1008.13
2022-08-09T09:22:41.922Z,1008.08
2022-08-09T09:23:40.912Z,1008.02
2022-08-09T09:24:43.258Z,1008.05
2022-08-09T09:26:01.464Z,1008.05
2022-08-09T09:26:41.913Z,1008.02
2022-08-09T09:28:06.150Z,1007.98
2022-08-09T09:29:03.313Z,1008.04
2022-08-09T09:30:14.063Z,1008.07
2022-08-09T09:30:41.983Z,1007.96
2022-08-09T09:32:06.934Z,1007.99
2022-08-09T09:32:41.844Z,1007.99
2022-08-09T09:33:44.343Z,1008.05
2022-08-09T09:34:40.805Z,1008.03
2022-08-09T09:35:43.854Z,1008.05
2022-08-09T09:36:52.725Z,1008.03
2022-08-09T09:37:41.805Z,1008.04
2022-08-09T09:38:40.766Z,1008.09
2022-08-09T09:39:50.505Z,1008.12
2022-08-09T09:40:41.746Z,1008.09
2022-08-09T09:41:49.648Z,1008.07
2022-08-09T09:42:45.995Z,1008.01
2022-08-09T09:44:11.128Z,1008.09
2022-08-09T09:44:41.708Z,1008.04
2022-08-09T09:45:57.024Z,1008.06
2022-08-09T09:46:50.463Z,1008.07
2022-08-09T09:47:56.153Z,1008.03
2022-08-09T09:48:41.691Z,1008.06
2022-08-09T09:50:07.363Z,1007.86
2022-08-09T09:50:42.095Z,1007.53
2022-08-09T09:51:41.648Z,1007.49
2022-08-09T09:52:40.640Z,1007.49
2022-08-09T09:53:57.287Z,1007.38
2022-08-09T09:54:41.631Z,1007.46
2022-08-09T09:55:41.610Z,1007.41
2022-08-09T09:58:01.332Z,1007.43
2022-08-09T09:58:01.578Z,1007.37
2022-08-09T09:58:41.582Z,1007.38
2022-08-09T09:59:40.612Z,1007.41
2022-08-09T10:00:40.554Z,1007.36
2022-08-09T10:01:40.652Z,1007.31
2022-08-09T10:02:47.577Z,1007.27
2022-08-09T10:03:40.606Z,1007.34
2022-08-09T10:04:40.571Z,1007.32
2022-08-09T10:06:03.578Z,1007.39
2022-08-09T10:06:42.382Z,1007.29
2022-08-09T10:08:01.171Z,1007.33
2022-08-09T10:08:42.455Z,1007.31
2022-08-09T10:09:44.088Z,1007.30
2022-08-09T10:10:41.469Z,1007.28
2022-08-09T10:11:53.930Z,1007.28
2022-08-09T10:12:43.508Z,1007.28
2022-08-09T10:13:45.110Z,1007.32
2022-08-09T10:14:43.981Z,1007.34
2022-08-09T10:16:09.647Z,1007.33
2022-08-09T10:16:57.882Z,1007.32
2022-08-09T10:17:50.787Z,1007.26
2022-08-09T10:18:41.370Z,1007.25
2022-08-09T10:19:41.357Z,1007.19
2022-08-09T10:20:45.263Z,1007.19
2022-08-09T10:21:41.330Z,1007.23
2022-08-09T10:22:40.723Z,1007.15
2022-08-09T10:23:40.331Z,1007.14
2022-08-09T10:24:40.348Z,1007.20
2022-08-09T10:26:07.541Z,1007.15
2022-08-09T10:26:41.279Z,1007.20
2022-08-09T10:27:55.868Z,1007.22
2022-08-09T10:28:41.299Z,1007.16
2022-08-09T10:30:43.823Z,1007.17
2022-08-09T10:32:13.253Z,1007.16
2022-08-09T10:32:35.762Z,1007.08
2022-08-09T10:32:50.454Z,1007.21
2022-08-09T10:34:10.473Z,1007.21
2022-08-09T10:34:41.215Z,1007.20
2022-08-09T10:35:40.187Z,1007.22
2022-08-09T10:36:40.167Z,1007.17
2022-08-09T10:37:40.155Z,1007.15
2022-08-09T10:38:57.110Z,1007.15
2022-08-09T10:39:49.026Z,1007.13
2022-08-09T10:40:44.814Z,1007.19
2022-08-09T10:41:41.110Z,1007.10
2022-08-09T10:42:40.104Z,1007.16
2022-08-09T10:43:47.121Z,1007.09
2022-08-09T10:44:41.076Z,1007.04
2022-08-09T10:45:49.214Z,1007.04
2022-08-09T10:46:54.645Z,1007.05
2022-08-09T10:48:17.391Z,1007.10
2022-08-09T10:48:41.037Z,1007.07
2022-08-09T10:49:50.424Z,1007.05
2022-08-09T10:50:41.107Z,1007.05
2022-08-09T10:51:40.916Z,1007.11
2022-08-09T10:52:42.769Z,1007.04
2022-08-09T10:53:46.711Z,1007.10
2022-08-09T10:54:40.970Z,1007.03
2022-08-09T10:55:57.931Z,1007.04
2022-08-09T10:56:40.968Z,1007.04
2022-08-09T10:57:41.819Z,1007.07
2022-08-09T10:58:39.930Z,1006.99
2022-08-09T10:59:43.286Z,1007.00
2022-08-09T11:00:41.738Z,1006.99
2022-08-09T11:03:13.975Z,1006.98
2022-08-09T11:03:16.371Z,1007.01
2022-08-09T11:03:51.535Z,1006.93
2022-08-09T11:04:55.628Z,1006.99
2022-08-09T11:06:00.305Z,1006.97
2022-08-09T11:06:40.841Z,1006.97
2022-08-09T11:07:56.703Z,1006.98
2022-08-09T11:08:47.216Z,1006.99
2022-08-09T11:09:41.427Z,1006.93
2022-08-09T11:10:40.806Z,1007.01
2022-08-09T11:11:43.650Z,1007.02
2022-08-09T11:12:40.773Z,1007.01
2022-08-09T11:13:51.064Z,1007.07
2022-08-09T11:14:40.752Z,1007.02
2022-08-09T11:16:04.365Z,1007.00
2022-08-09T11:16:41.113Z,1007.01
2022-08-09T11:17:41.845Z,1007.03
2022-08-09T11:18:39.717Z,1006.97
2022-08-09T11:20:11.966Z,1006.97
2022-08-09T11:20:40.684Z,1006.93
2022-08-09T11:21:41.390Z,1006.93
2022-08-09T11:22:39.657Z,1006.96
2022-08-09T11:23:39.666Z,1006.92
2022-08-09T11:24:39.666Z,1006.85
2022-08-09T11:25:47.377Z,1006.85
2022-08-09T11:26:40.821Z,1006.85
2022-08-09T11:28:02.678Z,1006.94
2022-08-09T11:28:55.814Z,1006.96
2022-08-09T11:30:04.676Z,1006.87
2022-08-09T11:30:48.143Z,1006.89
2022-08-09T11:31:43.390Z,1006.84
2022-08-09T11:32:40.580Z,1006.84
2022-08-09T11:33:39.539Z,1006.90
2022-08-09T11:34:39.591Z,1006.88
2022-08-09T11:35:49.991Z,1006.87
2022-08-09T11:36:40.529Z,1006.83
2022-08-09T11:37:41.440Z,1006.83
2022-08-09T11:38:41.294Z,1006.83
2022-08-09T11:39:39.545Z,1006.89
2022-08-09T11:40:39.507Z,1006.85
2022-08-09T11:41:40.486Z,1006.84
2022-08-09T11:42:39.467Z,1006.89
2022-08-09T11:43:39.441Z,1006.90
2022-08-09T11:44:39.423Z,1006.96
2022-08-09T11:45:43.133Z,1006.93
2022-08-09T11:46:39.441Z,1006.90
2022-08-09T11:47:39.400Z,1006.85
2022-08-09T11:48:39.438Z,1006.84
2022-08-09T11:49:52.248Z,1006.81
2022-08-09T11:50:55.278Z,1006.91
2022-08-09T11:53:02.757Z,1006.78
2022-08-09T11:53:15.908Z,1006.88
2022-08-09T11:54:01.192Z,1006.83
2022-08-09T11:54:40.313Z,1006.83
2022-08-09T11:55:53.241Z,1006.79
2022-08-09T11:56:47.842Z,1006.81
2022-08-09T11:57:47.621Z,1006.77
2022-08-09T11:58:40.276Z,1006.77
2022-08-09T11:59:40.265Z,1006.94
2022-08-09T12:00:39.244Z,1006.74
2022-08-09T12:02:18.306Z,1006.72
2022-08-09T12:02:40.801Z,1006.72
2022-08-09T12:03:57.326Z,1006.73
2022-08-09T12:04:40.290Z,1006.76
2022-08-09T12:05:39.579Z,1006.71